sensor_id;sensor_type;location;lat;lon;timestamp;P1;durP1;ratioP1;P2;durP2;ratioP2
73524;SDS011;61776;56.194;44.160;2022-09-12T00:02:23;22.08;;;9.85;;
73524;SDS011;61776;56.194;44.160;2022-09-12T00:04:50;21.77;;;10.02;;
73524;SDS011;61776;56.194;44.160;2022-09-12T00:07:16;20.13;;;9.93;;
73524;SDS011;61776;56.194;44.160;2022-09-12T00:09:42;19.87;;;9.50;;
73524;SDS011;61776;56.194;44.160;2022-09-12T00:12:07;23.10;;;10.18;;
73524;SDS011;61776;56.194;44.160;2022-09-12T00:14:33;23.33;;;10.30;;
73524;SDS011;61776;56.194;44.160;2022-09-12T00:17:00;24.98;;;11.25;;
73524;SDS011;61776;56.194;44.160;2022-09-12T00:19:26;24.47;;;12.37;;
73524;SDS011;61776;56.194;44.160;2022-09-12T00:21:54;29.15;;;14.18;;
73524;SDS011;61776;56.194;44.160;2022-09-12T00:24:21;27.88;;;13.45;;
73524;SDS011;61776;56.194;44.160;2022-09-12T00:26:47;29.17;;;12.60;;
73524;SDS011;61776;56.194;44.160;2022-09-12T00:29:14;26.42;;;12.50;;
73524;SDS011;61776;56.194;44.160;2022-09-12T00:31:42;30.50;;;13.17;;
73524;SDS011;61776;56.194;44.160;2022-09-12T00:34:08;31.58;;;14.68;;
73524;SDS011;61776;56.194;44.160;2022-09-12T00:36:34;29.17;;;14.52;;
73524;SDS011;61776;56.194;44.160;2022-09-12T00:39:01;28.15;;;14.20;;
73524;SDS011;61776;56.194;44.160;2022-09-12T00:43:59;25.40;;;13.50;;
73524;SDS011;61776;56.194;44.160;2022-09-12T00:49:15;29.50;;;15.27;;
73524;SDS011;61776;56.194;44.160;2022-09-12T00:54:44;28.58;;;14.75;;
73524;SDS011;61776;56.194;44.160;2022-09-12T00:57:17;25.50;;;12.63;;
73524;SDS011;61776;56.194;44.160;2022-09-12T00:59:49;26.08;;;12.40;;
73524;SDS011;61776;56.194;44.160;2022-09-12T01:02:18;25.98;;;12.32;;
73524;SDS011;61776;56.194;44.160;2022-09-12T01:04:44;22.23;;;11.57;;
73524;SDS011;61776;56.194;44.160;2022-09-12T01:07:12;25.27;;;12.55;;
73524;SDS011;61776;56.194;44.160;2022-09-12T01:09:40;21.20;;;11.20;;
73524;SDS011;61776;56.194;44.160;2022-09-12T01:12:08;20.10;;;10.05;;
73524;SDS011;61776;56.194;44.160;2022-09-12T01:14:35;18.10;;;10.18;;
73524;SDS011;61776;56.194;44.160;2022-09-12T01:17:02;21.55;;;9.98;;
73524;SDS011;61776;56.194;44.160;2022-09-12T01:22:35;20.40;;;9.52;;
73524;SDS011;61776;56.194;44.160;2022-09-12T01:28:35;18.42;;;8.68;;
73524;SDS011;61776;56.194;44.160;2022-09-12T01:31:27;18.15;;;8.13;;
73524;SDS011;61776;56.194;44.160;2022-09-12T01:37:12;15.82;;;7.03;;
73524;SDS011;61776;56.194;44.160;2022-09-12T01:40:11;14.15;;;7.15;;
73524;SDS011;61776;56.194;44.160;2022-09-12T01:42:52;16.83;;;6.82;;
73524;SDS011;61776;56.194;44.160;2022-09-12T01:45:44;14.13;;;7.30;;
73524;SDS011;61776;56.194;44.160;2022-09-12T01:48:15;12.50;;;6.50;;
73524;SDS011;61776;56.194;44.160;2022-09-12T01:51:09;12.90;;;6.40;;
73524;SDS011;61776;56.194;44.160;2022-09-12T01:53:47;13.93;;;5.90;;
73524;SDS011;61776;56.194;44.160;2022-09-12T01:56:18;12.32;;;6.28;;
73524;SDS011;61776;56.194;44.160;2022-09-12T01:59:04;12.68;;;6.13;;
73524;SDS011;61776;56.194;44.160;2022-09-12T02:01:39;13.37;;;6.70;;
73524;SDS011;61776;56.194;44.160;2022-09-12T02:04:17;13.27;;;6.60;;
73524;SDS011;61776;56.194;44.160;2022-09-12T02:07:25;12.85;;;6.03;;
73524;SDS011;61776;56.194;44.160;2022-09-12T02:09:47;10.50;;;6.03;;
73524;SDS011;61776;56.194;44.160;2022-09-12T02:12:37;12.75;;;5.93;;
73524;SDS011;61776;56.194;44.160;2022-09-12T02:15:08;15.37;;;5.90;;
73524;SDS011;61776;56.194;44.160;2022-09-12T02:17:38;11.02;;;5.88;;
73524;SDS011;61776;56.194;44.160;2022-09-12T02:20:13;12.30;;;6.15;;
73524;SDS011;61776;56.194;44.160;2022-09-12T02:22:46;13.05;;;6.38;;
73524;SDS011;61776;56.194;44.160;2022-09-12T02:25:15;16.80;;;6.45;;
73524;SDS011;61776;56.194;44.160;2022-09-12T02:27:45;14.03;;;5.90;;
73524;SDS011;61776;56.194;44.160;2022-09-12T02:30:15;10.75;;;5.65;;
73524;SDS011;61776;56.194;44.160;2022-09-12T02:41:07;12.70;;;6.17;;
73524;SDS011;61776;56.194;44.160;2022-09-12T02:43:33;17.23;;;6.65;;
73524;SDS011;61776;56.194;44.160;2022-09-12T02:45:59;13.93;;;6.47;;
73524;SDS011;61776;56.194;44.160;2022-09-12T02:48:26;10.82;;;6.15;;
73524;SDS011;61776;56.194;44.160;2022-09-12T02:50:56;12.10;;;6.40;;
73524;SDS011;61776;56.194;44.160;2022-09-12T02:53:22;14.68;;;7.10;;
73524;SDS011;61776;56.194;44.160;2022-09-12T02:55:48;13.75;;;7.20;;
73524;SDS011;61776;56.194;44.160;2022-09-12T02:58:16;13.25;;;6.85;;
73524;SDS011;61776;56.194;44.160;2022-09-12T03:03:26;12.50;;;7.07;;
73524;SDS011;61776;56.194;44.160;2022-09-12T03:06:18;11.65;;;6.60;;
73524;SDS011;61776;56.194;44.160;2022-09-12T03:09:13;13.85;;;7.18;;
73524;SDS011;61776;56.194;44.160;2022-09-12T03:20:17;19.75;;;7.80;;
73524;SDS011;61776;56.194;44.160;2022-09-12T03:22:54;13.63;;;7.50;;
73524;SDS011;61776;56.194;44.160;2022-09-12T03:25:26;16.63;;;7.65;;
73524;SDS011;61776;56.194;44.160;2022-09-12T03:27:58;29.77;;;9.60;;
73524;SDS011;61776;56.194;44.160;2022-09-12T03:30:30;15.60;;;7.93;;
73524;SDS011;61776;56.194;44.160;2022-09-12T03:33:01;16.45;;;8.80;;
73524;SDS011;61776;56.194;44.160;2022-09-12T03:35:27;13.52;;;7.70;;
73524;SDS011;61776;56.194;44.160;2022-09-12T03:37:54;14.50;;;8.10;;
73524;SDS011;61776;56.194;44.160;2022-09-12T03:40:20;11.87;;;7.53;;
73524;SDS011;61776;56.194;44.160;2022-09-12T03:42:46;15.82;;;8.35;;
73524;SDS011;61776;56.194;44.160;2022-09-12T03:45:12;15.40;;;7.75;;
73524;SDS011;61776;56.194;44.160;2022-09-12T03:47:39;15.82;;;8.80;;
73524;SDS011;61776;56.194;44.160;2022-09-12T03:50:05;17.07;;;9.47;;
73524;SDS011;61776;56.194;44.160;2022-09-12T03:52:31;19.83;;;9.90;;
73524;SDS011;61776;56.194;44.160;2022-09-12T03:54:57;21.30;;;10.90;;
73524;SDS011;61776;56.194;44.160;2022-09-12T03:57:23;22.02;;;10.43;;
73524;SDS011;61776;56.194;44.160;2022-09-12T03:59:49;25.30;;;11.47;;
73524;SDS011;61776;56.194;44.160;2022-09-12T04:02:15;23.67;;;10.52;;
73524;SDS011;61776;56.194;44.160;2022-09-12T04:04:42;15.52;;;9.02;;
73524;SDS011;61776;56.194;44.160;2022-09-12T04:07:10;16.87;;;8.07;;
73524;SDS011;61776;56.194;44.160;2022-09-12T04:09:36;15.75;;;7.95;;
73524;SDS011;61776;56.194;44.160;2022-09-12T04:12:02;18.05;;;8.75;;
73524;SDS011;61776;56.194;44.160;2022-09-12T04:14:28;17.90;;;7.97;;
73524;SDS011;61776;56.194;44.160;2022-09-12T04:16:54;16.93;;;8.97;;
73524;SDS011;61776;56.194;44.160;2022-09-12T04:19:20;16.92;;;8.38;;
73524;SDS011;61776;56.194;44.160;2022-09-12T04:21:45;19.73;;;8.35;;
73524;SDS011;61776;56.194;44.160;2022-09-12T04:24:12;17.97;;;8.63;;
73524;SDS011;61776;56.194;44.160;2022-09-12T04:26:37;15.10;;;7.95;;
73524;SDS011;61776;56.194;44.160;2022-09-12T04:29:03;16.47;;;7.33;;
73524;SDS011;61776;56.194;44.160;2022-09-12T04:31:29;15.67;;;8.00;;
73524;SDS011;61776;56.194;44.160;2022-09-12T04:33:56;13.73;;;6.90;;
73524;SDS011;61776;56.194;44.160;2022-09-12T04:36:23;13.73;;;6.95;;
73524;SDS011;61776;56.194;44.160;2022-09-12T04:38:50;12.53;;;6.73;;
73524;SDS011;61776;56.194;44.160;2022-09-12T04:41:24;11.85;;;6.53;;
73524;SDS011;61776;56.194;44.160;2022-09-12T04:43:56;11.98;;;6.93;;
73524;SDS011;61776;56.194;44.160;2022-09-12T04:46:26;12.38;;;6.47;;
73524;SDS011;61776;56.194;44.160;2022-09-12T04:48:53;12.43;;;6.25;;
73524;SDS011;61776;56.194;44.160;2022-09-12T04:51:21;11.97;;;6.43;;
73524;SDS011;61776;56.194;44.160;2022-09-12T04:53:52;13.40;;;6.00;;
73524;SDS011;61776;56.194;44.160;2022-09-12T04:56:20;13.90;;;7.03;;
73524;SDS011;61776;56.194;44.160;2022-09-12T04:58:47;12.65;;;6.85;;
73524;SDS011;61776;56.194;44.160;2022-09-12T05:01:15;13.75;;;6.82;;
73524;SDS011;61776;56.194;44.160;2022-09-12T05:03:43;13.37;;;6.83;;
73524;SDS011;61776;56.194;44.160;2022-09-12T05:06:12;16.13;;;7.43;;
73524;SDS011;61776;56.194;44.160;2022-09-12T05:08:42;15.10;;;6.55;;
73524;SDS011;61776;56.194;44.160;2022-09-12T05:11:15;15.80;;;7.10;;
73524;SDS011;61776;56.194;44.160;2022-09-12T05:13:43;15.00;;;7.32;;
73524;SDS011;61776;56.194;44.160;2022-09-12T05:16:10;12.77;;;6.40;;
73524;SDS011;61776;56.194;44.160;2022-09-12T05:18:37;16.08;;;7.45;;
73524;SDS011;61776;56.194;44.160;2022-09-12T05:21:05;17.15;;;7.45;;
73524;SDS011;61776;56.194;44.160;2022-09-12T05:23:32;14.93;;;7.10;;
73524;SDS011;61776;56.194;44.160;2022-09-12T05:25:58;12.52;;;6.28;;
73524;SDS011;61776;56.194;44.160;2022-09-12T05:28:29;13.07;;;5.77;;
73524;SDS011;61776;56.194;44.160;2022-09-12T05:31:02;13.93;;;6.47;;
73524;SDS011;61776;56.194;44.160;2022-09-12T05:33:40;13.63;;;6.43;;
73524;SDS011;61776;56.194;44.160;2022-09-12T05:36:18;15.30;;;5.90;;
73524;SDS011;61776;56.194;44.160;2022-09-12T05:38:48;17.25;;;6.57;;
73524;SDS011;61776;56.194;44.160;2022-09-12T05:41:18;11.93;;;6.23;;
73524;SDS011;61776;56.194;44.160;2022-09-12T05:43:46;15.48;;;6.35;;
73524;SDS011;61776;56.194;44.160;2022-09-12T05:46:16;16.35;;;5.80;;
73524;SDS011;61776;56.194;44.160;2022-09-12T05:48:44;10.57;;;6.18;;
73524;SDS011;61776;56.194;44.160;2022-09-12T05:51:13;11.98;;;5.80;;
73524;SDS011;61776;56.194;44.160;2022-09-12T05:53:47;12.67;;;6.00;;
73524;SDS011;61776;56.194;44.160;2022-09-12T05:56:16;14.95;;;6.10;;
73524;SDS011;61776;56.194;44.160;2022-09-12T05:58:49;12.70;;;5.70;;
73524;SDS011;61776;56.194;44.160;2022-09-12T06:01:18;11.13;;;5.40;;
73524;SDS011;61776;56.194;44.160;2022-09-12T06:03:48;15.75;;;6.20;;
73524;SDS011;61776;56.194;44.160;2022-09-12T06:06:16;14.03;;;5.80;;
73524;SDS011;61776;56.194;44.160;2022-09-12T06:08:45;15.52;;;6.15;;
73524;SDS011;61776;56.194;44.160;2022-09-12T06:11:14;15.50;;;5.80;;
73524;SDS011;61776;56.194;44.160;2022-09-12T06:13:42;25.02;;;6.30;;
73524;SDS011;61776;56.194;44.160;2022-09-12T06:16:09;13.95;;;6.25;;
73524;SDS011;61776;56.194;44.160;2022-09-12T06:18:37;10.03;;;6.20;;
73524;SDS011;61776;56.194;44.160;2022-09-12T06:21:04;13.10;;;5.55;;
73524;SDS011;61776;56.194;44.160;2022-09-12T06:23:32;14.57;;;6.50;;
73524;SDS011;61776;56.194;44.160;2022-09-12T06:25:58;10.02;;;5.72;;
73524;SDS011;61776;56.194;44.160;2022-09-12T06:28:24;13.23;;;6.32;;
73524;SDS011;61776;56.194;44.160;2022-09-12T06:30:50;14.57;;;6.17;;
73524;SDS011;61776;56.194;44.160;2022-09-12T06:33:16;11.63;;;5.90;;
73524;SDS011;61776;56.194;44.160;2022-09-12T06:35:42;10.52;;;6.43;;
73524;SDS011;61776;56.194;44.160;2022-09-12T06:38:08;9.88;;;6.65;;
73524;SDS011;61776;56.194;44.160;2022-09-12T06:40:34;11.80;;;6.70;;
73524;SDS011;61776;56.194;44.160;2022-09-12T06:43:08;12.23;;;6.03;;
73524;SDS011;61776;56.194;44.160;2022-09-12T06:45:36;14.20;;;6.13;;
73524;SDS011;61776;56.194;44.160;2022-09-12T06:48:02;12.77;;;6.47;;
73524;SDS011;61776;56.194;44.160;2022-09-12T06:50:28;16.02;;;6.82;;
73524;SDS011;61776;56.194;44.160;2022-09-12T06:52:53;14.90;;;7.35;;
73524;SDS011;61776;56.194;44.160;2022-09-12T06:55:19;15.63;;;7.37;;
73524;SDS011;61776;56.194;44.160;2022-09-12T06:57:45;15.80;;;7.50;;
73524;SDS011;61776;56.194;44.160;2022-09-12T07:00:11;14.88;;;8.35;;
73524;SDS011;61776;56.194;44.160;2022-09-12T07:02:37;12.67;;;7.40;;
73524;SDS011;61776;56.194;44.160;2022-09-12T07:05:03;14.48;;;7.63;;
73524;SDS011;61776;56.194;44.160;2022-09-12T07:07:29;11.98;;;7.05;;
73524;SDS011;61776;56.194;44.160;2022-09-12T07:09:58;15.80;;;7.75;;
73524;SDS011;61776;56.194;44.160;2022-09-12T07:12:26;14.20;;;7.83;;
73524;SDS011;61776;56.194;44.160;2022-09-12T07:14:54;15.30;;;7.50;;
73524;SDS011;61776;56.194;44.160;2022-09-12T07:17:20;16.92;;;7.03;;
73524;SDS011;61776;56.194;44.160;2022-09-12T07:19:46;23.30;;;8.00;;
73524;SDS011;61776;56.194;44.160;2022-09-12T07:22:12;17.90;;;7.25;;
73524;SDS011;61776;56.194;44.160;2022-09-12T07:24:38;14.20;;;6.57;;
73524;SDS011;61776;56.194;44.160;2022-09-12T07:27:05;13.40;;;6.55;;
73524;SDS011;61776;56.194;44.160;2022-09-12T07:29:31;13.03;;;6.00;;
73524;SDS011;61776;56.194;44.160;2022-09-12T07:31:57;14.88;;;6.10;;
73524;SDS011;61776;56.194;44.160;2022-09-12T07:34:24;9.73;;;5.70;;
73524;SDS011;61776;56.194;44.160;2022-09-12T07:36:50;11.60;;;5.73;;
73524;SDS011;61776;56.194;44.160;2022-09-12T07:39:15;10.20;;;4.55;;
73524;SDS011;61776;56.194;44.160;2022-09-12T07:41:41;9.68;;;4.60;;
73524;SDS011;61776;56.194;44.160;2022-09-12T07:44:07;10.13;;;5.23;;
73524;SDS011;61776;56.194;44.160;2022-09-12T07:46:33;10.13;;;4.70;;
73524;SDS011;61776;56.194;44.160;2022-09-12T07:48:59;10.10;;;4.72;;
73524;SDS011;61776;56.194;44.160;2022-09-12T07:51:27;7.75;;;4.82;;
73524;SDS011;61776;56.194;44.160;2022-09-12T07:53:54;6.77;;;3.93;;
73524;SDS011;61776;56.194;44.160;2022-09-12T07:56:20;7.43;;;4.20;;
73524;SDS011;61776;56.194;44.160;2022-09-12T07:58:47;9.60;;;4.22;;
73524;SDS011;61776;56.194;44.160;2022-09-12T08:01:14;7.10;;;4.32;;
73524;SDS011;61776;56.194;44.160;2022-09-12T08:03:42;8.07;;;4.60;;
73524;SDS011;61776;56.194;44.160;2022-09-12T08:06:15;8.87;;;4.00;;
73524;SDS011;61776;56.194;44.160;2022-09-12T08:08:46;7.85;;;3.92;;
73524;SDS011;61776;56.194;44.160;2022-09-12T08:11:13;6.38;;;3.63;;
73524;SDS011;61776;56.194;44.160;2022-09-12T08:13:41;7.28;;;3.47;;
73524;SDS011;61776;56.194;44.160;2022-09-12T08:16:11;7.05;;;4.00;;
73524;SDS011;61776;56.194;44.160;2022-09-12T08:18:38;6.10;;;3.37;;
73524;SDS011;61776;56.194;44.160;2022-09-12T08:21:05;5.78;;;2.92;;
73524;SDS011;61776;56.194;44.160;2022-09-12T08:23:36;7.90;;;3.30;;
73524;SDS011;61776;56.194;44.160;2022-09-12T08:26:02;5.47;;;3.28;;
73524;SDS011;61776;56.194;44.160;2022-09-12T08:28:30;4.93;;;2.75;;
73524;SDS011;61776;56.194;44.160;2022-09-12T08:31:03;4.40;;;2.70;;
73524;SDS011;61776;56.194;44.160;2022-09-12T08:33:33;5.22;;;2.67;;
73524;SDS011;61776;56.194;44.160;2022-09-12T08:36:10;5.18;;;2.67;;
73524;SDS011;61776;56.194;44.160;2022-09-12T08:38:37;4.65;;;2.40;;
73524;SDS011;61776;56.194;44.160;2022-09-12T08:46:35;4.05;;;2.25;;
73524;SDS011;61776;56.194;44.160;2022-09-12T08:51:52;9.18;;;2.17;;
73524;SDS011;61776;56.194;44.160;2022-09-12T08:54:21;6.40;;;2.47;;
73524;SDS011;61776;56.194;44.160;2022-09-12T08:56:52;8.53;;;2.83;;
73524;SDS011;61776;56.194;44.160;2022-09-12T08:59:26;4.28;;;2.20;;
73524;SDS011;61776;56.194;44.160;2022-09-12T09:01:59;4.72;;;2.47;;
73524;SDS011;61776;56.194;44.160;2022-09-12T09:10:21;5.93;;;2.50;;
73524;SDS011;61776;56.194;44.160;2022-09-12T09:15:43;5.25;;;2.58;;
73524;SDS011;61776;56.194;44.160;2022-09-12T09:18:18;3.80;;;2.28;;
73524;SDS011;61776;56.194;44.160;2022-09-12T09:20:50;4.68;;;2.63;;
73524;SDS011;61776;56.194;44.160;2022-09-12T09:28:56;34.15;;;4.03;;
73524;SDS011;61776;56.194;44.160;2022-09-12T09:31:29;13.10;;;3.05;;
73524;SDS011;61776;56.194;44.160;2022-09-12T09:33:59;7.53;;;2.60;;
73524;SDS011;61776;56.194;44.160;2022-09-12T09:44:31;5.65;;;2.55;;
73524;SDS011;61776;56.194;44.160;2022-09-12T09:46:57;7.77;;;2.90;;
73524;SDS011;61776;56.194;44.160;2022-09-12T09:49:28;4.73;;;2.90;;
73524;SDS011;61776;56.194;44.160;2022-09-12T09:51:56;4.80;;;2.63;;
73524;SDS011;61776;56.194;44.160;2022-09-12T09:54:27;4.57;;;2.60;;
73524;SDS011;61776;56.194;44.160;2022-09-12T09:56:58;4.45;;;2.47;;
73524;SDS011;61776;56.194;44.160;2022-09-12T09:59:25;4.00;;;2.00;;
73524;SDS011;61776;56.194;44.160;2022-09-12T10:01:56;3.50;;;1.80;;
73524;SDS011;61776;56.194;44.160;2022-09-12T10:04:25;7.22;;;2.03;;
73524;SDS011;61776;56.194;44.160;2022-09-12T10:06:55;4.00;;;2.20;;
73524;SDS011;61776;56.194;44.160;2022-09-12T10:09:24;3.40;;;1.95;;
73524;SDS011;61776;56.194;44.160;2022-09-12T10:11:53;6.10;;;2.40;;
73524;SDS011;61776;56.194;44.160;2022-09-12T10:14:37;3.88;;;2.00;;
73524;SDS011;61776;56.194;44.160;2022-09-12T10:18:05;4.78;;;2.17;;
73524;SDS011;61776;56.194;44.160;2022-09-12T10:20:30;5.30;;;2.30;;
73524;SDS011;61776;56.194;44.160;2022-09-12T10:26:02;8.17;;;2.40;;
73524;SDS011;61776;56.194;44.160;2022-09-12T10:28:34;5.20;;;2.40;;
73524;SDS011;61776;56.194;44.160;2022-09-12T10:31:03;5.53;;;1.92;;
73524;SDS011;61776;56.194;44.160;2022-09-12T10:33:32;4.72;;;2.22;;
73524;SDS011;61776;56.194;44.160;2022-09-12T10:36:17;5.22;;;2.45;;
73524;SDS011;61776;56.194;44.160;2022-09-12T10:38:50;4.10;;;2.17;;
73524;SDS011;61776;56.194;44.160;2022-09-12T10:41:21;4.82;;;2.30;;
73524;SDS011;61776;56.194;44.160;2022-09-12T10:43:48;6.05;;;2.75;;
73524;SDS011;61776;56.194;44.160;2022-09-12T10:48:43;18.83;;;8.70;;
73524;SDS011;61776;56.194;44.160;2022-09-12T10:51:34;29.43;;;11.60;;
73524;SDS011;61776;56.194;44.160;2022-09-12T10:54:03;10.13;;;4.00;;
73524;SDS011;61776;56.194;44.160;2022-09-12T10:56:37;8.75;;;2.47;;
73524;SDS011;61776;56.194;44.160;2022-09-12T11:02:00;8.45;;;3.40;;
73524;SDS011;61776;56.194;44.160;2022-09-12T11:07:44;5.85;;;2.60;;
73524;SDS011;61776;56.194;44.160;2022-09-12T11:12:52;4.65;;;1.67;;
73524;SDS011;61776;56.194;44.160;2022-09-12T11:18:32;5.30;;;1.90;;
73524;SDS011;61776;56.194;44.160;2022-09-12T11:21:08;4.03;;;2.17;;
73524;SDS011;61776;56.194;44.160;2022-09-12T11:26:59;3.67;;;1.80;;
73524;SDS011;61776;56.194;44.160;2022-09-12T11:29:53;3.65;;;1.77;;
73524;SDS011;61776;56.194;44.160;2022-09-12T11:54:17;5.32;;;2.20;;
73524;SDS011;61776;56.194;44.160;2022-09-12T11:59:34;3.20;;;2.03;;
73524;SDS011;61776;56.194;44.160;2022-09-12T12:02:19;3.90;;;2.10;;
73524;SDS011;61776;56.194;44.160;2022-09-12T12:07:25;5.88;;;2.05;;
73524;SDS011;61776;56.194;44.160;2022-09-12T12:09:53;2.92;;;1.80;;
73524;SDS011;61776;56.194;44.160;2022-09-12T12:12:22;3.13;;;1.90;;
73524;SDS011;61776;56.194;44.160;2022-09-12T12:14:52;4.93;;;1.90;;
73524;SDS011;61776;56.194;44.160;2022-09-12T12:17:23;3.10;;;1.70;;
73524;SDS011;61776;56.194;44.160;2022-09-12T12:19:57;3.40;;;1.83;;
73524;SDS011;61776;56.194;44.160;2022-09-12T12:22:25;6.13;;;1.88;;
73524;SDS011;61776;56.194;44.160;2022-09-12T12:24:57;5.73;;;1.93;;
73524;SDS011;61776;56.194;44.160;2022-09-12T12:27:51;5.15;;;1.77;;
73524;SDS011;61776;56.194;44.160;2022-09-12T12:43:49;3.35;;;1.90;;
73524;SDS011;61776;56.194;44.160;2022-09-12T12:46:17;3.92;;;2.20;;
73524;SDS011;61776;56.194;44.160;2022-09-12T12:54:26;4.85;;;1.90;;
73524;SDS011;61776;56.194;44.160;2022-09-12T12:59:55;5.47;;;1.95;;
73524;SDS011;61776;56.194;44.160;2022-09-12T13:03:08;5.53;;;2.15;;
73524;SDS011;61776;56.194;44.160;2022-09-12T13:05:44;3.73;;;2.37;;
73524;SDS011;61776;56.194;44.160;2022-09-12T13:11:27;3.50;;;2.03;;
73524;SDS011;61776;56.194;44.160;2022-09-12T13:16:33;4.45;;;1.75;;
73524;SDS011;61776;56.194;44.160;2022-09-12T13:19:12;3.77;;;1.80;;
73524;SDS011;61776;56.194;44.160;2022-09-12T13:22:16;3.53;;;1.80;;
73524;SDS011;61776;56.194;44.160;2022-09-12T13:24:45;3.40;;;1.60;;
73524;SDS011;61776;56.194;44.160;2022-09-12T13:27:19;4.00;;;1.80;;
73524;SDS011;61776;56.194;44.160;2022-09-12T13:29:47;3.97;;;2.00;;
73524;SDS011;61776;56.194;44.160;2022-09-12T13:32:14;3.73;;;1.90;;
73524;SDS011;61776;56.194;44.160;2022-09-12T13:37:47;5.72;;;2.58;;
73524;SDS011;61776;56.194;44.160;2022-09-12T13:45:34;3.23;;;2.10;;
73524;SDS011;61776;56.194;44.160;2022-09-12T13:48:03;5.10;;;2.00;;
73524;SDS011;61776;56.194;44.160;2022-09-12T13:50:35;7.03;;;2.13;;
73524;SDS011;61776;56.194;44.160;2022-09-12T13:53:06;4.53;;;1.90;;
73524;SDS011;61776;56.194;44.160;2022-09-12T13:55:39;4.50;;;1.73;;
73524;SDS011;61776;56.194;44.160;2022-09-12T13:58:24;7.63;;;2.10;;
73524;SDS011;61776;56.194;44.160;2022-09-12T14:03:40;5.80;;;2.00;;
73524;SDS011;61776;56.194;44.160;2022-09-12T14:06:47;7.13;;;2.15;;
73524;SDS011;61776;56.194;44.160;2022-09-12T14:09:22;5.47;;;1.98;;
73524;SDS011;61776;56.194;44.160;2022-09-12T14:11:54;4.50;;;1.97;;
73524;SDS011;61776;56.194;44.160;2022-09-12T14:14:33;4.82;;;2.10;;
73524;SDS011;61776;56.194;44.160;2022-09-12T14:19:54;3.35;;;1.85;;
73524;SDS011;61776;56.194;44.160;2022-09-12T14:22:23;4.15;;;2.00;;
73524;SDS011;61776;56.194;44.160;2022-09-12T14:24:53;4.20;;;2.00;;
73524;SDS011;61776;56.194;44.160;2022-09-12T14:27:24;12.50;;;2.20;;
73524;SDS011;61776;56.194;44.160;2022-09-12T14:30:00;4.82;;;2.20;;
73524;SDS011;61776;56.194;44.160;2022-09-12T14:32:31;3.45;;;1.88;;
73524;SDS011;61776;56.194;44.160;2022-09-12T14:37:45;4.60;;;2.20;;
73524;SDS011;61776;56.194;44.160;2022-09-12T14:40:14;3.88;;;2.40;;
73524;SDS011;61776;56.194;44.160;2022-09-12T14:42:44;4.10;;;2.03;;
73524;SDS011;61776;56.194;44.160;2022-09-12T14:45:28;3.97;;;1.83;;
73524;SDS011;61776;56.194;44.160;2022-09-12T14:47:55;3.78;;;1.95;;
73524;SDS011;61776;56.194;44.160;2022-09-12T14:50:27;6.10;;;2.07;;
73524;SDS011;61776;56.194;44.160;2022-09-12T14:53:03;8.05;;;2.15;;
73524;SDS011;61776;56.194;44.160;2022-09-12T14:55:31;6.00;;;2.17;;
73524;SDS011;61776;56.194;44.160;2022-09-12T14:58:07;4.00;;;2.10;;
73524;SDS011;61776;56.194;44.160;2022-09-12T15:05:55;4.88;;;2.20;;
73524;SDS011;61776;56.194;44.160;2022-09-12T15:08:22;4.60;;;2.42;;
73524;SDS011;61776;56.194;44.160;2022-09-12T15:10:49;4.15;;;2.20;;
73524;SDS011;61776;56.194;44.160;2022-09-12T15:13:16;6.63;;;2.50;;
73524;SDS011;61776;56.194;44.160;2022-09-12T15:15:45;5.10;;;2.53;;
73524;SDS011;61776;56.194;44.160;2022-09-12T15:18:16;4.30;;;2.20;;
73524;SDS011;61776;56.194;44.160;2022-09-12T15:20:43;4.25;;;2.45;;
73524;SDS011;61776;56.194;44.160;2022-09-12T15:23:14;4.43;;;2.40;;
73524;SDS011;61776;56.194;44.160;2022-09-12T15:25:44;12.25;;;2.30;;
73524;SDS011;61776;56.194;44.160;2022-09-12T15:28:20;6.85;;;2.10;;
73524;SDS011;61776;56.194;44.160;2022-09-12T15:30:48;5.30;;;2.25;;
73524;SDS011;61776;56.194;44.160;2022-09-12T15:33:19;4.40;;;2.22;;
73524;SDS011;61776;56.194;44.160;2022-09-12T15:35:47;5.07;;;2.40;;
73524;SDS011;61776;56.194;44.160;2022-09-12T15:38:14;9.50;;;2.53;;
73524;SDS011;61776;56.194;44.160;2022-09-12T15:40:40;5.18;;;2.50;;
73524;SDS011;61776;56.194;44.160;2022-09-12T15:43:06;5.75;;;2.55;;
73524;SDS011;61776;56.194;44.160;2022-09-12T15:45:36;5.68;;;2.60;;
73524;SDS011;61776;56.194;44.160;2022-09-12T15:48:02;5.37;;;2.50;;
73524;SDS011;61776;56.194;44.160;2022-09-12T15:50:28;9.02;;;2.70;;
73524;SDS011;61776;56.194;44.160;2022-09-12T15:52:54;5.90;;;2.80;;
73524;SDS011;61776;56.194;44.160;2022-09-12T15:55:22;8.90;;;3.03;;
73524;SDS011;61776;56.194;44.160;2022-09-12T15:57:49;6.57;;;2.90;;
73524;SDS011;61776;56.194;44.160;2022-09-12T16:00:16;8.30;;;2.50;;
73524;SDS011;61776;56.194;44.160;2022-09-12T16:02:43;9.52;;;3.08;;
73524;SDS011;61776;56.194;44.160;2022-09-12T16:05:12;13.23;;;2.83;;
73524;SDS011;61776;56.194;44.160;2022-09-12T16:07:42;9.68;;;2.92;;
73524;SDS011;61776;56.194;44.160;2022-09-12T16:10:15;7.57;;;3.33;;
73524;SDS011;61776;56.194;44.160;2022-09-12T16:12:43;6.15;;;2.70;;
73524;SDS011;61776;56.194;44.160;2022-09-12T16:15:13;5.20;;;2.55;;
73524;SDS011;61776;56.194;44.160;2022-09-12T16:17:50;5.38;;;2.70;;
73524;SDS011;61776;56.194;44.160;2022-09-12T16:20:16;7.00;;;2.75;;
73524;SDS011;61776;56.194;44.160;2022-09-12T16:22:43;6.00;;;2.87;;
73524;SDS011;61776;56.194;44.160;2022-09-12T16:25:09;7.50;;;2.53;;
73524;SDS011;61776;56.194;44.160;2022-09-12T16:27:36;6.32;;;2.80;;
73524;SDS011;61776;56.194;44.160;2022-09-12T16:30:03;6.68;;;2.55;;
73524;SDS011;61776;56.194;44.160;2022-09-12T16:32:30;7.05;;;2.50;;
73524;SDS011;61776;56.194;44.160;2022-09-12T16:34:56;6.57;;;2.37;;
73524;SDS011;61776;56.194;44.160;2022-09-12T16:37:22;8.77;;;2.60;;
73524;SDS011;61776;56.194;44.160;2022-09-12T16:39:48;5.47;;;2.60;;
73524;SDS011;61776;56.194;44.160;2022-09-12T16:42:15;6.45;;;2.55;;
73524;SDS011;61776;56.194;44.160;2022-09-12T16:44:44;5.03;;;2.30;;
73524;SDS011;61776;56.194;44.160;2022-09-12T16:47:12;6.43;;;2.47;;
73524;SDS011;61776;56.194;44.160;2022-09-12T16:49:39;5.88;;;2.70;;
73524;SDS011;61776;56.194;44.160;2022-09-12T16:52:05;6.22;;;2.20;;
73524;SDS011;61776;56.194;44.160;2022-09-12T16:54:31;5.65;;;2.65;;
73524;SDS011;61776;56.194;44.160;2022-09-12T16:56:57;6.00;;;2.40;;
73524;SDS011;61776;56.194;44.160;2022-09-12T16:59:23;23.42;;;2.95;;
73524;SDS011;61776;56.194;44.160;2022-09-12T17:01:48;4.85;;;2.45;;
73524;SDS011;61776;56.194;44.160;2022-09-12T17:04:14;5.53;;;2.53;;
73524;SDS011;61776;56.194;44.160;2022-09-12T17:06:40;4.93;;;2.35;;
73524;SDS011;61776;56.194;44.160;2022-09-12T17:09:06;4.70;;;2.05;;
73524;SDS011;61776;56.194;44.160;2022-09-12T17:11:34;6.13;;;2.40;;
73524;SDS011;61776;56.194;44.160;2022-09-12T17:14:02;5.35;;;2.38;;
73524;SDS011;61776;56.194;44.160;2022-09-12T17:16:31;5.13;;;2.67;;
73524;SDS011;61776;56.194;44.160;2022-09-12T17:22:59;6.75;;;2.72;;
73524;SDS011;61776;56.194;44.160;2022-09-12T17:26:05;12.57;;;2.80;;
73524;SDS011;61776;56.194;44.160;2022-09-12T17:29:40;4.55;;;2.33;;
73524;SDS011;61776;56.194;44.160;2022-09-12T17:33:16;6.18;;;2.45;;
73524;SDS011;61776;56.194;44.160;2022-09-12T17:36:23;5.68;;;2.80;;
73524;SDS011;61776;56.194;44.160;2022-09-12T17:43:04;4.47;;;2.13;;